sensor_id;sensor_type;location;lat;lon;timestamp;temperature;humidity
43671;DHT22;29267;50.906;7.248;2023-04-29T00:00:05;12.30;99.90
43671;DHT22;29267;50.906;7.248;2023-04-29T00:02:31;12.10;99.90
43671;DHT22;29267;50.906;7.248;2023-04-29T00:04:57;12.10;99.90
43671;DHT22;29267;50.906;7.248;2023-04-29T00:07:23;12.10;99.90
43671;DHT22;29267;50.906;7.248;2023-04-29T00:09:48;12.00;99.90
43671;DHT22;29267;50.906;7.248;2023-04-29T00:12:14;11.90;99.90
43671;DHT22;29267;50.906;7.248;2023-04-29T00:14:40;11.90;99.90
43671;DHT22;29267;50.906;7.248;2023-04-29T00:17:07;11.90;99.90
43671;DHT22;29267;50.906;7.248;2023-04-29T00:19:33;11.80;99.90
43671;DHT22;29267;50.906;7.248;2023-04-29T00:21:59;11.70;99.90
43671;DHT22;29267;50.906;7.248;2023-04-29T00:24:25;11.70;99.90
43671;DHT22;29267;50.906;7.248;2023-04-29T00:26:50;11.60;99.90
43671;DHT22;29267;50.906;7.248;2023-04-29T00:29:16;11.60;99.90
43671;DHT22;29267;50.906;7.248;2023-04-29T00:31:43;11.50;99.90
43671;DHT22;29267;50.906;7.248;2023-04-29T00:34:09;11.50;99.90
43671;DHT22;29267;50.906;7.248;2023-04-29T00:36:35;11.50;99.90
43671;DHT22;29267;50.906;7.248;2023-04-29T00:39:01;11.50;99.90
43671;DHT22;29267;50.906;7.248;2023-04-29T00:41:28;11.50;99.90
43671;DHT22;29267;50.906;7.248;2023-04-29T00:43:54;11.50;99.90
43671;DHT22;29267;50.906;7.248;2023-04-29T00:46:20;11.40;99.90
43671;DHT22;29267;50.906;7.248;2023-04-29T00:48:45;11.40;99.90
43671;DHT22;29267;50.906;7.248;2023-04-29T00:51:11;11.40;99.90
43671;DHT22;29267;50.906;7.248;2023-04-29T00:53:38;11.40;99.90
43671;DHT22;29267;50.906;7.248;2023-04-29T00:56:04;11.40;99.90
43671;DHT22;29267;50.906;7.248;2023-04-29T00:58:32;11.30;99.90
43671;DHT22;29267;50.906;7.248;2023-04-29T01:01:00;11.30;99.90
43671;DHT22;29267;50.906;7.248;2023-04-29T01:03:27;11.30;99.90
43671;DHT22;29267;50.906;7.248;2023-04-29T01:06:07;11.30;99.90
43671;DHT22;29267;50.906;7.248;2023-04-29T01:08:47;11.30;99.90
43671;DHT22;29267;50.906;7.248;2023-04-29T01:11:22;11.30;99.90
43671;DHT22;29267;50.906;7.248;2023-04-29T01:13:58;11.20;99.90
43671;DHT22;29267;50.906;7.248;2023-04-29T01:16:55;11.20;99.90
43671;DHT22;29267;50.906;7.248;2023-04-29T01:19:46;11.20;99.90
43671;DHT22;29267;50.906;7.248;2023-04-29T01:22:12;11.20;99.90
43671;DHT22;29267;50.906;7.248;2023-04-29T01:24:43;11.20;99.90
43671;DHT22;29267;50.906;7.248;2023-04-29T01:32:52;11.20;99.90
43671;DHT22;29267;50.906;7.248;2023-04-29T01:41:13;11.20;99.90
43671;DHT22;29267;50.906;7.248;2023-04-29T01:43:38;11.20;99.90
43671;DHT22;29267;50.906;7.248;2023-04-29T01:46:16;11.10;99.90
43671;DHT22;29267;50.906;7.248;2023-04-29T01:48:43;11.10;99.90
43671;DHT22;29267;50.906;7.248;2023-04-29T01:51:08;11.20;99.90
43671;DHT22;29267;50.906;7.248;2023-04-29T01:53:35;11.10;99.90
43671;DHT22;29267;50.906;7.248;2023-04-29T01:56:01;11.10;99.90
43671;DHT22;29267;50.906;7.248;2023-04-29T01:58:27;11.20;99.90
43671;DHT22;29267;50.906;7.248;2023-04-29T02:00:53;11.10;99.90
43671;DHT22;29267;50.906;7.248;2023-04-29T02:03:19;11.10;99.90
43671;DHT22;29267;50.906;7.248;2023-04-29T02:05:45;11.10;99.90
43671;DHT22;29267;50.906;7.248;2023-04-29T02:08:10;11.10;99.90
43671;DHT22;29267;50.906;7.248;2023-04-29T02:10:37;11.10;99.90
43671;DHT22;29267;50.906;7.248;2023-04-29T02:13:02;11.10;99.90
43671;DHT22;29267;50.906;7.248;2023-04-29T02:15:28;11.00;99.90
43671;DHT22;29267;50.906;7.248;2023-04-29T02:17:53;11.00;99.90
43671;DHT22;29267;50.906;7.248;2023-04-29T02:20:19;11.00;99.90
43671;DHT22;29267;50.906;7.248;2023-04-29T02:22:45;11.00;99.90
43671;DHT22;29267;50.906;7.248;2023-04-29T02:25:11;11.00;99.90
43671;DHT22;29267;50.906;7.248;2023-04-29T02:27:36;11.00;99.90
43671;DHT22;29267;50.906;7.248;2023-04-29T02:30:02;11.00;99.90
43671;DHT22;29267;50.906;7.248;2023-04-29T02:32:29;10.90;99.90
43671;DHT22;29267;50.906;7.248;2023-04-29T02:34:55;10.90;99.90
43671;DHT22;29267;50.906;7.248;2023-04-29T02:37:21;10.90;99.90
43671;DHT22;29267;50.906;7.248;2023-04-29T02:39:47;11.00;99.90
43671;DHT22;29267;50.906;7.248;2023-04-29T02:42:13;10.90;99.90
43671;DHT22;29267;50.906;7.248;2023-04-29T02:44:38;10.90;99.90
43671;DHT22;29267;50.906;7.248;2023-04-29T02:47:04;10.90;99.90
43671;DHT22;29267;50.906;7.248;2023-04-29T02:49:30;10.80;99.90
43671;DHT22;29267;50.906;7.248;2023-04-29T02:51:55;10.80;99.90
43671;DHT22;29267;50.906;7.248;2023-04-29T02:54:22;10.80;99.90
43671;DHT22;29267;50.906;7.248;2023-04-29T02:56:48;10.70;99.90
43671;DHT22;29267;50.906;7.248;2023-04-29T02:59:14;10.70;99.90
43671;DHT22;29267;50.906;7.248;2023-04-29T03:01:39;10.60;99.90
43671;DHT22;29267;50.906;7.248;2023-04-29T03:04:05;10.60;99.90
43671;DHT22;29267;50.906;7.248;2023-04-29T03:06:31;10.50;99.90
43671;DHT22;29267;50.906;7.248;2023-04-29T03:08:56;10.50;99.90
43671;DHT22;29267;50.906;7.248;2023-04-29T03:11:22;10.40;99.90
43671;DHT22;29267;50.906;7.248;2023-04-29T03:13:50;10.40;99.90
43671;DHT22;29267;50.906;7.248;2023-04-29T03:16:16;10.40;99.90
43671;DHT22;29267;50.906;7.248;2023-04-29T03:18:43;10.40;99.90
43671;DHT22;29267;50.906;7.248;2023-04-29T03:21:09;10.40;99.90
43671;DHT22;29267;50.906;7.248;2023-04-29T03:23:35;10.40;99.90
43671;DHT22;29267;50.906;7.248;2023-04-29T03:26:00;10.40;99.90
43671;DHT22;29267;50.906;7.248;2023-04-29T03:28:26;10.30;99.90
43671;DHT22;29267;50.906;7.248;2023-04-29T03:30:52;10.30;99.90
43671;DHT22;29267;50.906;7.248;2023-04-29T03:33:17;10.30;99.90
43671;DHT22;29267;50.906;7.248;2023-04-29T03:35:43;10.30;99.90
43671;DHT22;29267;50.906;7.248;2023-04-29T03:38:10;10.20;99.90
43671;DHT22;29267;50.906;7.248;2023-04-29T03:40:36;10.20;99.90
43671;DHT22;29267;50.906;7.248;2023-04-29T03:43:02;10.20;99.90
43671;DHT22;29267;50.906;7.248;2023-04-29T03:45:28;10.20;99.90
43671;DHT22;29267;50.906;7.248;2023-04-29T03:47:53;10.20;99.90
43671;DHT22;29267;50.906;7.248;2023-04-29T03:50:19;10.20;99.90
43671;DHT22;29267;50.906;7.248;2023-04-29T03:52:45;10.20;99.90
43671;DHT22;29267;50.906;7.248;2023-04-29T03:55:10;10.20;99.90
43671;DHT22;29267;50.906;7.248;2023-04-29T03:57:37;10.20;99.90
43671;DHT22;29267;50.906;7.248;2023-04-29T04:00:04;10.20;99.90
43671;DHT22;29267;50.906;7.248;2023-04-29T04:02:29;10.20;99.90
43671;DHT22;29267;50.906;7.248;2023-04-29T04:04:55;10.10;99.90
43671;DHT22;29267;50.906;7.248;2023-04-29T04:07:20;10.10;99.90
43671;DHT22;29267;50.906;7.248;2023-04-29T04:09:46;10.10;99.90
43671;DHT22;29267;50.906;7.248;2023-04-29T04:12:12;10.10;99.90
43671;DHT22;29267;50.906;7.248;2023-04-29T04:14:37;10.00;99.90
43671;DHT22;29267;50.906;7.248;2023-04-29T04:17:03;10.00;99.90
43671;DHT22;29267;50.906;7.248;2023-04-29T04:19:29;10.00;99.90
43671;DHT22;29267;50.906;7.248;2023-04-29T04:21:55;9.90;99.90
43671;DHT22;29267;50.906;7.248;2023-04-29T04:24:21;9.90;99.90
43671;DHT22;29267;50.906;7.248;2023-04-29T04:26:47;9.90;99.90
43671;DHT22;29267;50.906;7.248;2023-04-29T04:29:12;9.90;99.90
43671;DHT22;29267;50.906;7.248;2023-04-29T04:31:38;9.90;99.90
43671;DHT22;29267;50.906;7.248;2023-04-29T04:34:04;9.90;99.90
43671;DHT22;29267;50.906;7.248;2023-04-29T04:36:30;9.90;99.90
43671;DHT22;29267;50.906;7.248;2023-04-29T04:38:57;9.80;99.90
43671;DHT22;29267;50.906;7.248;2023-04-29T04:41:22;9.80;99.90
43671;DHT22;29267;50.906;7.248;2023-04-29T04:43:48;9.70;99.90
43671;DHT22;29267;50.906;7.248;2023-04-29T04:46:14;9.80;99.90
43671;DHT22;29267;50.906;7.248;2023-04-29T04:48:41;9.80;99.90
43671;DHT22;29267;50.906;7.248;2023-04-29T04:51:10;9.80;99.90
43671;DHT22;29267;50.906;7.248;2023-04-29T04:53:37;9.80;99.90
43671;DHT22;29267;50.906;7.248;2023-04-29T04:56:03;9.70;99.90
43671;DHT22;29267;50.906;7.248;2023-04-29T04:58:29;9.70;99.90
43671;DHT22;29267;50.906;7.248;2023-04-29T05:00:56;9.80;99.90
43671;DHT22;29267;50.906;7.248;2023-04-29T05:03:22;9.80;99.90
43671;DHT22;29267;50.906;7.248;2023-04-29T05:05:59;9.80;99.90
43671;DHT22;29267;50.906;7.248;2023-04-29T05:08:25;9.80;99.90
43671;DHT22;29267;50.906;7.248;2023-04-29T05:10:51;9.70;99.90
43671;DHT22;29267;50.906;7.248;2023-04-29T05:13:17;9.70;99.90
43671;DHT22;29267;50.906;7.248;2023-04-29T05:15:43;9.70;99.90
43671;DHT22;29267;50.906;7.248;2023-04-29T05:18:10;9.70;99.90
43671;DHT22;29267;50.906;7.248;2023-04-29T05:20:35;9.80;99.90
43671;DHT22;29267;50.906;7.248;2023-04-29T05:23:04;9.80;99.90
43671;DHT22;29267;50.906;7.248;2023-04-29T05:25:29;9.80;99.90
43671;DHT22;29267;50.906;7.248;2023-04-29T05:27:55;9.80;99.90
43671;DHT22;29267;50.906;7.248;2023-04-29T05:30:21;9.80;99.90
43671;DHT22;29267;50.906;7.248;2023-04-29T05:32:47;9.80;99.90
43671;DHT22;29267;50.906;7.248;2023-04-29T05:35:16;9.80;99.90
43671;DHT22;29267;50.906;7.248;2023-04-29T05:37:41;9.80;99.90
43671;DHT22;29267;50.906;7.248;2023-04-29T05:40:07;9.90;99.90
43671;DHT22;29267;50.906;7.248;2023-04-29T05:42:34;9.90;99.90
43671;DHT22;29267;50.906;7.248;2023-04-29T05:44:59;9.80;99.90
43671;DHT22;29267;50.906;7.248;2023-04-29T05:47:25;9.80;99.90
43671;DHT22;29267;50.906;7.248;2023-04-29T05:49:51;9.70;99.90
43671;DHT22;29267;50.906;7.248;2023-04-29T05:52:16;9.70;99.90
43671;DHT22;29267;50.906;7.248;2023-04-29T05:54:42;9.70;99.90
43671;DHT22;29267;50.906;7.248;2023-04-29T05:57:07;9.70;99.90
43671;DHT22;29267;50.906;7.248;2023-04-29T05:59:33;9.70;99.90
43671;DHT22;29267;50.906;7.248;2023-04-29T06:01:59;9.70;99.90
43671;DHT22;29267;50.906;7.248;2023-04-29T06:04:25;9.70;99.90
43671;DHT22;29267;50.906;7.248;2023-04-29T06:06:52;9.70;99.90
43671;DHT22;29267;50.906;7.248;2023-04-29T06:09:21;9.70;99.90
43671;DHT22;29267;50.906;7.248;2023-04-29T06:11:46;9.70;99.90
43671;DHT22;29267;50.906;7.248;2023-04-29T06:14:12;9.70;99.90
43671;DHT22;29267;50.906;7.248;2023-04-29T06:16:38;9.70;99.90
43671;DHT22;29267;50.906;7.248;2023-04-29T06:19:04;9.70;99.90
43671;DHT22;29267;50.906;7.248;2023-04-29T06:21:30;9.70;99.90
43671;DHT22;29267;50.906;7.248;2023-04-29T06:23:56;9.70;99.90
43671;DHT22;29267;50.906;7.248;2023-04-29T06:26:22;9.80;99.90
43671;DHT22;29267;50.906;7.248;2023-04-29T06:28:48;9.70;99.90
43671;DHT22;29267;50.906;7.248;2023-04-29T06:31:14;9.80;99.90
43671;DHT22;29267;50.906;7.248;2023-04-29T06:33:40;9.70;99.90
43671;DHT22;29267;50.906;7.248;2023-04-29T06:36:06;9.70;99.90
43671;DHT22;29267;50.906;7.248;2023-04-29T06:38:32;9.70;99.90
43671;DHT22;29267;50.906;7.248;2023-04-29T06:40:58;9.80;99.90
43671;DHT22;29267;50.906;7.248;2023-04-29T06:43:28;9.70;99.90
43671;DHT22;29267;50.906;7.248;2023-04-29T06:45:54;9.80;99.90
43671;DHT22;29267;50.906;7.248;2023-04-29T06:48:20;9.80;99.90
43671;DHT22;29267;50.906;7.248;2023-04-29T06:50:52;9.70;99.90
43671;DHT22;29267;50.906;7.248;2023-04-29T06:53:18;9.80;99.90
43671;DHT22;29267;50.906;7.248;2023-04-29T06:55:44;9.80;99.90
43671;DHT22;29267;50.906;7.248;2023-04-29T06:58:12;9.80;99.90
43671;DHT22;29267;50.906;7.248;2023-04-29T07:00:38;9.80;99.90
43671;DHT22;29267;50.906;7.248;2023-04-29T07:03:04;9.80;99.90
43671;DHT22;29267;50.906;7.248;2023-04-29T07:05:29;9.80;99.90
43671;DHT22;29267;50.906;7.248;2023-04-29T07:07:55;9.80;99.90
43671;DHT22;29267;50.906;7.248;2023-04-29T07:10:21;9.90;99.90
43671;DHT22;29267;50.906;7.248;2023-04-29T07:12:46;10.00;99.90
43671;DHT22;29267;50.906;7.248;2023-04-29T07:15:12;9.90;99.90
43671;DHT22;29267;50.906;7.248;2023-04-29T07:17:37;9.90;99.90
43671;DHT22;29267;50.906;7.248;2023-04-29T07:20:03;9.90;99.90
43671;DHT22;29267;50.906;7.248;2023-04-29T07:22:29;9.90;99.90
43671;DHT22;29267;50.906;7.248;2023-04-29T07:24:55;10.00;99.90
43671;DHT22;29267;50.906;7.248;2023-04-29T07:27:21;10.10;99.90
43671;DHT22;29267;50.906;7.248;2023-04-29T07:29:47;10.10;99.90
43671;DHT22;29267;50.906;7.248;2023-04-29T07:32:13;10.10;99.90
43671;DHT22;29267;50.906;7.248;2023-04-29T07:34:39;10.30;99.90
43671;DHT22;29267;50.906;7.248;2023-04-29T07:37:04;10.50;99.90
43671;DHT22;29267;50.906;7.248;2023-04-29T07:39:30;10.60;99.90
43671;DHT22;29267;50.906;7.248;2023-04-29T07:41:56;10.60;99.90
43671;DHT22;29267;50.906;7.248;2023-04-29T07:44:22;10.60;99.90
43671;DHT22;29267;50.906;7.248;2023-04-29T07:46:47;10.70;99.90
43671;DHT22;29267;50.906;7.248;2023-04-29T07:49:13;10.60;99.90
43671;DHT22;29267;50.906;7.248;2023-04-29T07:51:42;10.70;99.90
43671;DHT22;29267;50.906;7.248;2023-04-29T07:54:08;10.70;99.90
43671;DHT22;29267;50.906;7.248;2023-04-29T07:56:34;10.80;99.90
43671;DHT22;29267;50.906;7.248;2023-04-29T07:59:00;10.80;99.90
43671;DHT22;29267;50.906;7.248;2023-04-29T08:01:26;10.70;99.90
43671;DHT22;29267;50.906;7.248;2023-04-29T08:03:53;10.80;99.90
43671;DHT22;29267;50.906;7.248;2023-04-29T08:06:18;10.80;99.90
43671;DHT22;29267;50.906;7.248;2023-04-29T08:08:46;10.70;99.90
43671;DHT22;29267;50.906;7.248;2023-04-29T08:11:19;10.60;99.90
43671;DHT22;29267;50.906;7.248;2023-04-29T08:13:46;10.60;99.90
43671;DHT22;29267;50.906;7.248;2023-04-29T08:16:11;10.80;99.90
43671;DHT22;29267;50.906;7.248;2023-04-29T08:18:38;11.00;99.90
43671;DHT22;29267;50.906;7.248;2023-04-29T08:21:03;11.10;99.90
43671;DHT22;29267;50.906;7.248;2023-04-29T08:23:29;11.40;99.90
43671;DHT22;29267;50.906;7.248;2023-04-29T08:25:55;11.30;99.90
43671;DHT22;29267;50.906;7.248;2023-04-29T08:28:23;11.50;99.90
43671;DHT22;29267;50.906;7.248;2023-04-29T08:30:49;11.60;99.90
43671;DHT22;29267;50.906;7.248;2023-04-29T08:33:15;11.90;99.90
43671;DHT22;29267;50.906;7.248;2023-04-29T08:35:41;12.10;99.90
43671;DHT22;29267;50.906;7.248;2023-04-29T08:38:08;12.10;99.90
43671;DHT22;29267;50.906;7.248;2023-04-29T08:40:35;12.20;99.90
43671;DHT22;29267;50.906;7.248;2023-04-29T08:43:02;12.10;99.90
43671;DHT22;29267;50.906;7.248;2023-04-29T08:45:28;12.40;99.90
43671;DHT22;29267;50.906;7.248;2023-04-29T08:47:55;12.60;99.90
43671;DHT22;29267;50.906;7.248;2023-04-29T08:50:22;12.40;99.90
43671;DHT22;29267;50.906;7.248;2023-04-29T08:52:49;12.40;99.90
43671;DHT22;29267;50.906;7.248;2023-04-29T08:55:15;12.50;99.90
43671;DHT22;29267;50.906;7.248;2023-04-29T08:57:42;12.70;99.90
43671;DHT22;29267;50.906;7.248;2023-04-29T09:00:09;12.80;99.90
43671;DHT22;29267;50.906;7.248;2023-04-29T09:02:40;13.40;99.90
43671;DHT22;29267;50.906;7.248;2023-04-29T09:05:08;13.40;99.90
43671;DHT22;29267;50.906;7.248;2023-04-29T09:07:37;13.60;99.90
43671;DHT22;29267;50.906;7.248;2023-04-29T09:10:07;14.00;99.90
43671;DHT22;29267;50.906;7.248;2023-04-29T09:12:33;14.40;99.90
43671;DHT22;29267;50.906;7.248;2023-04-29T09:14:58;14.10;99.90
43671;DHT22;29267;50.906;7.248;2023-04-29T09:17:45;14.00;99.90
43671;DHT22;29267;50.906;7.248;2023-04-29T09:23:00;13.50;99.90
43671;DHT22;29267;50.906;7.248;2023-04-29T09:25:27;13.20;99.90
43671;DHT22;29267;50.906;7.248;2023-04-29T09:27:54;13.00;99.90
43671;DHT22;29267;50.906;7.248;2023-04-29T09:30:20;12.90;99.90
43671;DHT22;29267;50.906;7.248;2023-04-29T09:33:03;12.70;99.90
43671;DHT22;29267;50.906;7.248;2023-04-29T09:35:29;12.50;99.90
43671;DHT22;29267;50.906;7.248;2023-04-29T09:38:13;12.10;99.90
43671;DHT22;29267;50.906;7.248;2023-04-29T09:40:41;11.90;99.90
43671;DHT22;29267;50.906;7.248;2023-04-29T09:43:17;11.80;99.90
43671;DHT22;29267;50.906;7.248;2023-04-29T09:45:44;11.40;99.90
43671;DHT22;29267;50.906;7.248;2023-04-29T09:48:10;11.30;99.90
43671;DHT22;29267;50.906;7.248;2023-04-29T09:50:37;11.20;99.90
43671;DHT22;29267;50.906;7.248;2023-04-29T09:53:08;11.30;99.90
43671;DHT22;29267;50.906;7.248;2023-04-29T09:55:57;11.40;99.90
43671;DHT22;29267;50.906;7.248;2023-04-29T09:58:33;11.20;99.90
43671;DHT22;29267;50.906;7.248;2023-04-29T10:01:03;11.20;99.90
43671;DHT22;29267;50.906;7.248;2023-04-29T10:03:31;11.30;99.90
43671;DHT22;29267;50.906;7.248;2023-04-29T10:05:59;11.20;99.90
43671;DHT22;29267;50.906;7.248;2023-04-29T10:08:26;11.30;99.90
43671;DHT22;29267;50.906;7.248;2023-04-29T10:10:54;11.30;99.90
43671;DHT22;29267;50.906;7.248;2023-04-29T10:13:26;11.50;99.90
43671;DHT22;29267;50.906;7.248;2023-04-29T10:18:47;11.40;99.90
43671;DHT22;29267;50.906;7.248;2023-04-29T10:21:13;11.40;99.90
43671;DHT22;29267;50.906;7.248;2023-04-29T10:23:40;11.50;99.90
43671;DHT22;29267;50.906;7.248;2023-04-29T10:26:11;11.50;99.90
43671;DHT22;29267;50.906;7.248;2023-04-29T10:28:38;11.50;99.90
43671;DHT22;29267;50.906;7.248;2023-04-29T10:31:05;11.30;99.90
43671;DHT22;29267;50.906;7.248;2023-04-29T10:33:32;11.30;99.90
43671;DHT22;29267;50.906;7.248;2023-04-29T10:35:59;11.30;99.90
43671;DHT22;29267;50.906;7.248;2023-04-29T10:38:30;11.40;99.90
43671;DHT22;29267;50.906;7.248;2023-04-29T10:40:58;11.60;99.90
43671;DHT22;29267;50.906;7.248;2023-04-29T10:43:28;11.80;99.90
43671;DHT22;29267;50.906;7.248;2023-04-29T10:46:16;11.80;99.90
43671;DHT22;29267;50.906;7.248;2023-04-29T10:48:43;12.00;99.90
43671;DHT22;29267;50.906;7.248;2023-04-29T10:51:09;12.30;99.90
43671;DHT22;29267;50.906;7.248;2023-04-29T10:53:34;12.30;99.90
43671;DHT22;29267;50.906;7.248;2023-04-29T10:56:18;12.30;99.90
43671;DHT22;29267;50.906;7.248;2023-04-29T10:58:45;12.20;99.90
43671;DHT22;29267;50.906;7.248;2023-04-29T11:01:15;12.10;99.90
43671;DHT22;29267;50.906;7.248;2023-04-29T11:03:51;11.90;99.90
43671;DHT22;29267;50.906;7.248;2023-04-29T11:06:38;11.80;99.90
43671;DHT22;29267;50.906;7.248;2023-04-29T11:09:20;11.70;99.90
43671;DHT22;29267;50.906;7.248;2023-04-29T11:14:41;11.90;99.90
43671;DHT22;29267;50.906;7.248;2023-04-29T11:17:15;11.80;99.90
43671;DHT22;29267;50.906;7.248;2023-04-29T11:19:46;11.90;99.90
43671;DHT22;29267;50.906;7.248;2023-04-29T11:27:17;11.80;99.90
43671;DHT22;29267;50.906;7.248;2023-04-29T11:29:45;11.70;99.90
43671;DHT22;29267;50.906;7.248;2023-04-29T11:32:11;11.70;99.90
43671;DHT22;29267;50.906;7.248;2023-04-29T11:34:37;11.90;99.90
43671;DHT22;29267;50.906;7.248;2023-04-29T11:37:04;11.70;99.90
43671;DHT22;29267;50.906;7.248;2023-04-29T11:39:33;11.70;99.90
43671;DHT22;29267;50.906;7.248;2023-04-29T11:42:04;11.60;99.90
43671;DHT22;29267;50.906;7.248;2023-04-29T11:44:35;11.40;99.90
43671;DHT22;29267;50.906;7.248;2023-04-29T11:47:05;11.50;99.90
43671;DHT22;29267;50.906;7.248;2023-04-29T11:49:34;11.40;99.90
43671;DHT22;29267;50.906;7.248;2023-04-29T11:52:02;11.30;99.90
43671;DHT22;29267;50.906;7.248;2023-04-29T11:54:29;11.20;99.90
43671;DHT22;29267;50.906;7.248;2023-04-29T11:56:56;11.20;99.90
43671;DHT22;29267;50.906;7.248;2023-04-29T11:59:22;11.20;99.90
43671;DHT22;29267;50.906;7.248;2023-04-29T12:01:49;11.30;99.90
43671;DHT22;29267;50.906;7.248;2023-04-29T12:04:15;11.20;99.90
43671;DHT22;29267;50.906;7.248;2023-04-29T12:06:40;11.20;99.90
43671;DHT22;29267;50.906;7.248;2023-04-29T12:09:06;11.10;99.90
43671;DHT22;29267;50.906;7.248;2023-04-29T12:11:33;11.30;99.90
43671;DHT22;29267;50.906;7.248;2023-04-29T12:13:59;11.20;99.90
43671;DHT22;29267;50.906;7.248;2023-04-29T12:16:28;11.20;99.90
43671;DHT22;29267;50.906;7.248;2023-04-29T12:18:54;11.30;99.90
43671;DHT22;29267;50.906;7.248;2023-04-29T12:21:21;11.40;99.90
43671;DHT22;29267;50.906;7.248;2023-04-29T12:23:47;11.60;99.90
43671;DHT22;29267;50.906;7.248;2023-04-29T12:26:13;11.60;99.90
43671;DHT22;29267;50.906;7.248;2023-04-29T12:28:39;11.70;99.90
43671;DHT22;29267;50.906;7.248;2023-04-29T12:31:08;11.70;99.90
43671;DHT22;29267;50.906;7.248;2023-04-29T12:33:35;11.70;99.90
43671;DHT22;29267;50.906;7.248;2023-04-29T12:36:02;11.60;99.90
43671;DHT22;29267;50.906;7.248;2023-04-29T12:38:30;11.60;99.90
43671;DHT22;29267;50.906;7.248;2023-04-29T12:40:58;11.60;99.90
43671;DHT22;29267;50.906;7.248;2023-04-29T12:43:28;11.70;99.90
43671;DHT22;29267;50.906;7.248;2023-04-29T12:46:15;11.70;99.90
43671;DHT22;29267;50.906;7.248;2023-04-29T12:48:41;11.70;99.90
43671;DHT22;29267;50.906;7.248;2023-04-29T12:51:11;11.80;99.90
43671;DHT22;29267;50.906;7.248;2023-04-29T12:53:37;11.70;99.90
43671;DHT22;29267;50.906;7.248;2023-04-29T12:56:04;12.00;99.90
43671;DHT22;29267;50.906;7.248;2023-04-29T12:58:30;11.90;99.90
43671;DHT22;29267;50.906;7.248;2023-04-29T13:00:59;12.10;99.90
43671;DHT22;29267;50.906;7.248;2023-04-29T13:03:25;12.20;99.90
43671;DHT22;29267;50.906;7.248;2023-04-29T13:05:51;12.50;99.90
43671;DHT22;29267;50.906;7.248;2023-04-29T13:08:19;12.60;99.90
43671;DHT22;29267;50.906;7.248;2023-04-29T13:10:44;13.10;99.90
43671;DHT22;29267;50.906;7.248;2023-04-29T13:13:10;13.50;99.90
43671;DHT22;29267;50.906;7.248;2023-04-29T13:15:36;14.00;99.90
43671;DHT22;29267;50.906;7.248;2023-04-29T13:18:04;14.30;99.90
43671;DHT22;29267;50.906;7.248;2023-04-29T13:20:29;14.70;99.90
43671;DHT22;29267;50.906;7.248;2023-04-29T13:22:55;15.40;99.90
43671;DHT22;29267;50.906;7.248;2023-04-29T13:25:20;15.30;99.90
43671;DHT22;29267;50.906;7.248;2023-04-29T13:27:46;15.60;99.90
43671;DHT22;29267;50.906;7.248;2023-04-29T13:30:12;15.30;99.90
43671;DHT22;29267;50.906;7.248;2023-04-29T13:32:38;15.50;99.90
43671;DHT22;29267;50.906;7.248;2023-04-29T13:35:05;15.70;99.90
43671;DHT22;29267;50.906;7.248;2023-04-29T13:37:31;15.60;99.90
43671;DHT22;29267;50.906;7.248;2023-04-29T13:39:57;16.10;99.90
43671;DHT22;29267;50.906;7.248;2023-04-29T13:42:22;16.40;99.90
43671;DHT22;29267;50.906;7.248;2023-04-29T13:44:48;16.10;99.90
43671;DHT22;29267;50.906;7.248;2023-04-29T13:47:15;15.90;99.90
43671;DHT22;29267;50.906;7.248;2023-04-29T13:49:42;15.70;99.90
43671;DHT22;29267;50.906;7.248;2023-04-29T13:52:11;15.50;99.90
43671;DHT22;29267;50.906;7.248;2023-04-29T13:54:37;15.70;99.90
43671;DHT22;29267;50.906;7.248;2023-04-29T13:57:03;15.50;99.90
43671;DHT22;29267;50.906;7.248;2023-04-29T13:59:33;15.40;99.90
43671;DHT22;29267;50.906;7.248;2023-04-29T14:02:00;15.60;99.90
43671;DHT22;29267;50.906;7.248;2023-04-29T14:04:26;15.50;99.90
43671;DHT22;29267;50.906;7.248;2023-04-29T14:06:52;15.70;99.90
43671;DHT22;29267;50.906;7.248;2023-04-29T14:09:19;15.80;99.90
43671;DHT22;29267;50.906;7.248;2023-04-29T14:11:45;15.40;99.90
43671;DHT22;29267;50.906;7.248;2023-04-29T14:14:11;15.60;99.90
43671;DHT22;29267;50.906;7.248;2023-04-29T14:16:36;15.30;99.90
43671;DHT22;29267;50.906;7.248;2023-04-29T14:19:02;15.20;99.90
43671;DHT22;29267;50.906;7.248;2023-04-29T14:21:28;15.30;99.90
43671;DHT22;29267;50.906;7.248;2023-04-29T14:23:54;15.00;99.90
43671;DHT22;29267;50.906;7.248;2023-04-29T14:26:20;14.80;99.90
43671;DHT22;29267;50.906;7.248;2023-04-29T14:28:45;14.90;99.90
43671;DHT22;29267;50.906;7.248;2023-04-29T14:31:11;14.70;99.90
43671;DHT22;29267;50.906;7.248;2023-04-29T14:33:38;14.70;99.90
43671;DHT22;29267;50.906;7.248;2023-04-29T14:36:05;14.50;99.90
43671;DHT22;29267;50.906;7.248;2023-04-29T14:38:32;14.50;99.90
43671;DHT22;29267;50.906;7.248;2023-04-29T14:40:57;14.50;99.90
43671;DHT22;29267;50.906;7.248;2023-04-29T14:43:23;14.30;99.90
43671;DHT22;29267;50.906;7.248;2023-04-29T14:45:49;14.20;99.90
43671;DHT22;29267;50.906;7.248;2023-04-29T14:48:14;14.20;99.90
43671;DHT22;29267;50.906;7.248;2023-04-29T14:50:40;14.10;99.90
43671;DHT22;29267;50.906;7.248;2023-04-29T14:53:05;14.00;99.90
43671;DHT22;29267;50.906;7.248;2023-04-29T14:55:33;14.00;99.90
43671;DHT22;29267;50.906;7.248;2023-04-29T14:57:58;13.80;99.90
43671;DHT22;29267;50.906;7.248;2023-04-29T15:00:24;13.80;99.90
43671;DHT22;29267;50.906;7.248;2023-04-29T15:02:49;13.70;99.90
43671;DHT22;29267;50.906;7.248;2023-04-29T15:05:15;13.70;99.90
43671;DHT22;29267;50.906;7.248;2023-04-29T15:07:41;13.70;99.90
43671;DHT22;29267;50.906;7.248;2023-04-29T15:10:07;13.90;99.90
43671;DHT22;29267;50.906;7.248;2023-04-29T15:12:33;13.90;99.90
43671;DHT22;29267;50.906;7.248;2023-04-29T15:14:59;14.00;99.90
43671;DHT22;29267;50.906;7.248;2023-04-29T15:17:25;14.10;99.90
43671;DHT22;29267;50.906;7.248;2023-04-29T15:19:50;14.00;99.90
43671;DHT22;29267;50.906;7.248;2023-04-29T15:22:16;14.10;99.90
43671;DHT22;29267;50.906;7.248;2023-04-29T15:24:42;13.90;99.90
43671;DHT22;29267;50.906;7.248;2023-04-29T15:27:07;13.90;99.90
43671;DHT22;29267;50.906;7.248;2023-04-29T15:29:33;13.70;99.90
43671;DHT22;29267;50.906;7.248;2023-04-29T15:32:01;13.80;99.90
43671;DHT22;29267;50.906;7.248;2023-04-29T15:34:27;13.80;99.90
43671;DHT22;29267;50.906;7.248;2023-04-29T15:36:52;13.90;99.90
43671;DHT22;29267;50.906;7.248;2023-04-29T15:39:20;13.90;99.90
43671;DHT22;29267;50.906;7.248;2023-04-29T15:41:46;13.90;99.90
43671;DHT22;29267;50.906;7.248;2023-04-29T15:44:12;13.90;99.90
43671;DHT22;29267;50.906;7.248;2023-04-29T15:46:38;13.90;99.90
43671;DHT22;29267;50.906;7.248;2023-04-29T15:49:03;14.00;99.90
43671;DHT22;29267;50.906;7.248;2023-04-29T15:51:31;13.90;99.90
43671;DHT22;29267;50.906;7.248;2023-04-29T15:53:56;14.00;99.90
43671;DHT22;29267;50.906;7.248;2023-04-29T15:56:22;14.10;99.90
43671;DHT22;29267;50.906;7.248;2023-04-29T15:58:48;14.20;99.90